In Rescue
 
Open Full Screen Window  High Contrast Mode
Wind Gusting 00 knots
15
May 19, 2019 1:04 PM CDT
Weather Information
Wind Direction
  040 °
Wind Speed
  15 kt (17 mph)
Wind Gust
  00 kt (0 mph)
Altimeter
29.87 in
Visibility
10 SM
Temperature
06° C
43° F
Dewpoint
06° C
43° F
Humidity
100%
1hr Rain Fall
00.00 in.
24hr Rain Fall
00.11 in.
Sky Condition
Overcast @ 2,000 ft
MVFR

METAR KDXX 191804Z AUTO 04015KT 10SM OVC020 06/06 A2987 RMK AO2

FAA Disclaimer: The data displayed is for advisory purposes only and is not to be used for flight planning or operations.